sensor_id;sensor_type;location;lat;lon;timestamp;pressure;altitude;pressure_sealevel;temperature;humidity
67038;BME280;53940;53.204;6.590;2022-07-23T00:00:16;101865.56;;;21.80;58.23
67038;BME280;53940;53.204;6.590;2022-07-23T00:03:17;101870.94;;;21.80;58.19
67038;BME280;53940;53.204;6.590;2022-07-23T00:06:17;101870.22;;;21.78;58.39
67038;BME280;53940;53.204;6.590;2022-07-23T00:09:18;101871.19;;;21.77;58.29
67038;BME280;53940;53.204;6.590;2022-07-23T00:12:18;101866.94;;;21.74;58.37
67038;BME280;53940;53.204;6.590;2022-07-23T00:15:18;101867.88;;;21.73;58.28
67038;BME280;53940;53.204;6.590;2022-07-23T00:18:19;101862.66;;;21.72;58.33
67038;BME280;53940;53.204;6.590;2022-07-23T00:21:19;101865.44;;;21.70;58.26
67038;BME280;53940;53.204;6.590;2022-07-23T00:24:20;101873.59;;;21.68;58.29
67038;BME280;53940;53.204;6.590;2022-07-23T00:27:21;101868.22;;;21.68;58.46
67038;BME280;53940;53.204;6.590;2022-07-23T00:30:21;101868.31;;;21.67;58.42
67038;BME280;53940;53.204;6.590;2022-07-23T00:33:21;101866.78;;;21.64;58.31
67038;BME280;53940;53.204;6.590;2022-07-23T00:36:23;101863.22;;;21.64;58.45
67038;BME280;53940;53.204;6.590;2022-07-23T00:39:23;101867.00;;;21.61;58.38
67038;BME280;53940;53.204;6.590;2022-07-23T00:42:23;101858.94;;;21.61;58.32
67038;BME280;53940;53.204;6.590;2022-07-23T00:45:24;101848.34;;;21.60;58.20
67038;BME280;53940;53.204;6.590;2022-07-23T00:48:24;101855.66;;;21.58;58.26
67038;BME280;53940;53.204;6.590;2022-07-23T00:51:25;101861.03;;;21.58;58.48
67038;BME280;53940;53.204;6.590;2022-07-23T00:54:27;101862.13;;;21.55;58.07
67038;BME280;53940;53.204;6.590;2022-07-23T00:57:27;101863.22;;;21.52;58.18
67038;BME280;53940;53.204;6.590;2022-07-23T01:00:28;101849.06;;;21.50;58.24
67038;BME280;53940;53.204;6.590;2022-07-23T01:03:28;101851.88;;;21.49;58.38
67038;BME280;53940;53.204;6.590;2022-07-23T01:06:29;101852.84;;;21.48;58.08
67038;BME280;53940;53.204;6.590;2022-07-23T01:09:31;101843.94;;;21.47;58.10
67038;BME280;53940;53.204;6.590;2022-07-23T01:12:31;101846.75;;;21.46;58.19
67038;BME280;53940;53.204;6.590;2022-07-23T01:15:33;101836.25;;;21.43;58.35
67038;BME280;53940;53.204;6.590;2022-07-23T01:18:34;101836.25;;;21.43;58.20
67038;BME280;53940;53.204;6.590;2022-07-23T01:21:40;101833.69;;;21.41;58.13
67038;BME280;53940;53.204;6.590;2022-07-23T01:24:41;101825.78;;;21.39;58.18
67038;BME280;53940;53.204;6.590;2022-07-23T01:27:42;101823.22;;;21.38;58.43
67038;BME280;53940;53.204;6.590;2022-07-23T01:30:42;101824.19;;;21.37;58.21
67038;BME280;53940;53.204;6.590;2022-07-23T01:33:42;101830.50;;;21.36;58.54
67038;BME280;53940;53.204;6.590;2022-07-23T01:36:43;101828.81;;;21.35;58.23
67038;BME280;53940;53.204;6.590;2022-07-23T01:39:43;101820.91;;;21.33;58.50
67038;BME280;53940;53.204;6.590;2022-07-23T01:42:46;101821.84;;;21.32;58.43
67038;BME280;53940;53.204;6.590;2022-07-23T01:45:47;101815.78;;;21.30;58.22
67038;BME280;53940;53.204;6.590;2022-07-23T01:48:47;101814.91;;;21.30;58.24
67038;BME280;53940;53.204;6.590;2022-07-23T01:51:48;101820.41;;;21.28;58.15
67038;BME280;53940;53.204;6.590;2022-07-23T01:55:00;101814.28;;;21.26;58.21
67038;BME280;53940;53.204;6.590;2022-07-23T01:58:00;101812.59;;;21.25;58.18
67038;BME280;53940;53.204;6.590;2022-07-23T02:01:01;101802.84;;;21.24;58.38
67038;BME280;53940;53.204;6.590;2022-07-23T02:04:01;101803.84;;;21.23;58.18
67038;BME280;53940;53.204;6.590;2022-07-23T02:07:03;101798.69;;;21.20;58.36
67038;BME280;53940;53.204;6.590;2022-07-23T02:10:04;101794.19;;;21.20;58.22
67038;BME280;53940;53.204;6.590;2022-07-23T02:13:04;101791.63;;;21.19;58.30
67038;BME280;53940;53.204;6.590;2022-07-23T02:16:05;101789.94;;;21.18;58.56
67038;BME280;53940;53.204;6.590;2022-07-23T02:19:05;101793.59;;;21.17;58.39
67038;BME280;53940;53.204;6.590;2022-07-23T02:22:05;101792.72;;;21.16;58.24
67038;BME280;53940;53.204;6.590;2022-07-23T02:25:07;101793.81;;;21.13;58.30
67038;BME280;53940;53.204;6.590;2022-07-23T02:28:07;101785.78;;;21.13;58.43
67038;BME280;53940;53.204;6.590;2022-07-23T02:31:07;101797.47;;;21.12;58.63
67038;BME280;53940;53.204;6.590;2022-07-23T02:34:08;101788.72;;;21.10;58.39
67038;BME280;53940;53.204;6.590;2022-07-23T02:37:11;101791.38;;;21.10;58.55
67038;BME280;53940;53.204;6.590;2022-07-23T02:40:12;101791.50;;;21.09;58.54
67038;BME280;53940;53.204;6.590;2022-07-23T02:43:12;101790.63;;;21.08;58.41
67038;BME280;53940;53.204;6.590;2022-07-23T02:46:12;101783.56;;;21.07;58.56
67038;BME280;53940;53.204;6.590;2022-07-23T02:49:13;101787.22;;;21.06;58.62
67038;BME280;53940;53.204;6.590;2022-07-23T02:52:13;101790.88;;;21.05;58.22
67038;BME280;53940;53.204;6.590;2022-07-23T02:55:14;101798.94;;;21.05;58.28
67038;BME280;53940;53.204;6.590;2022-07-23T02:58:14;101795.53;;;21.03;58.35
67038;BME280;53940;53.204;6.590;2022-07-23T03:01:14;101808.91;;;21.03;58.46
67038;BME280;53940;53.204;6.590;2022-07-23T03:04:14;101801.00;;;21.02;58.50
67038;BME280;53940;53.204;6.590;2022-07-23T03:07:16;101800.13;;;21.01;58.56
67038;BME280;53940;53.204;6.590;2022-07-23T03:10:17;101799.28;;;21.00;58.39
67038;BME280;53940;53.204;6.590;2022-07-23T03:13:17;101793.94;;;21.00;58.31
67038;BME280;53940;53.204;6.590;2022-07-23T03:16:17;101787.69;;;21.00;58.25
67038;BME280;53940;53.204;6.590;2022-07-23T03:19:18;101784.31;;;20.98;58.65
67038;BME280;53940;53.204;6.590;2022-07-23T03:22:18;101795.03;;;20.98;58.49
67038;BME280;53940;53.204;6.590;2022-07-23T03:25:18;101790.63;;;20.97;58.25
67038;BME280;53940;53.204;6.590;2022-07-23T03:28:19;101798.69;;;20.97;58.76
67038;BME280;53940;53.204;6.590;2022-07-23T03:31:19;101802.31;;;20.96;58.44
67038;BME280;53940;53.204;6.590;2022-07-23T03:34:19;101806.81;;;20.95;58.63
67038;BME280;53940;53.204;6.590;2022-07-23T03:37:20;101797.91;;;20.95;58.59
67038;BME280;53940;53.204;6.590;2022-07-23T03:40:20;101793.53;;;20.94;58.75
67038;BME280;53940;53.204;6.590;2022-07-23T03:43:21;101788.19;;;20.94;58.29
67038;BME280;53940;53.204;6.590;2022-07-23T03:46:21;101793.66;;;20.92;58.55
67038;BME280;53940;53.204;6.590;2022-07-23T03:49:21;101787.34;;;20.93;58.76
67038;BME280;53940;53.204;6.590;2022-07-23T03:52:21;101793.66;;;20.92;58.62
67038;BME280;53940;53.204;6.590;2022-07-23T03:55:22;101796.22;;;20.94;58.38
67038;BME280;53940;53.204;6.590;2022-07-23T03:58:22;101800.84;;;20.92;58.24
67038;BME280;53940;53.204;6.590;2022-07-23T04:01:22;101797.41;;;20.90;58.37
67038;BME280;53940;53.204;6.590;2022-07-23T04:04:23;101801.81;;;20.91;58.45
67038;BME280;53940;53.204;6.590;2022-07-23T04:07:23;101795.59;;;20.90;58.53
67038;BME280;53940;53.204;6.590;2022-07-23T04:10:23;101789.38;;;20.90;58.26
67038;BME280;53940;53.204;6.590;2022-07-23T04:13:24;101790.34;;;20.89;58.72
67038;BME280;53940;53.204;6.590;2022-07-23T04:16:24;101792.19;;;20.88;58.68
67038;BME280;53940;53.204;6.590;2022-07-23T04:19:25;101793.91;;;20.89;58.20
67038;BME280;53940;53.204;6.590;2022-07-23T04:22:26;101790.34;;;20.89;58.64
67038;BME280;53940;53.204;6.590;2022-07-23T04:25:26;101791.22;;;20.89;58.28
67038;BME280;53940;53.204;6.590;2022-07-23T04:28:27;101798.38;;;20.89;58.34
67038;BME280;53940;53.204;6.590;2022-07-23T04:31:27;101794.00;;;20.87;58.30
67038;BME280;53940;53.204;6.590;2022-07-23T04:34:27;101795.72;;;20.89;58.51
67038;BME280;53940;53.204;6.590;2022-07-23T04:37:28;101797.66;;;20.86;58.40
67038;BME280;53940;53.204;6.590;2022-07-23T04:40:28;101800.09;;;20.90;58.35
67038;BME280;53940;53.204;6.590;2022-07-23T04:43:29;101801.06;;;20.89;58.38
67038;BME280;53940;53.204;6.590;2022-07-23T04:46:29;101803.75;;;20.89;58.39
67038;BME280;53940;53.204;6.590;2022-07-23T04:49:29;101799.38;;;20.87;58.39
67038;BME280;53940;53.204;6.590;2022-07-23T04:52:30;101813.63;;;20.88;58.57
67038;BME280;53940;53.204;6.590;2022-07-23T04:55:30;101809.09;;;20.89;58.42
67038;BME280;53940;53.204;6.590;2022-07-23T04:58:30;101809.09;;;20.89;58.62
67038;BME280;53940;53.204;6.590;2022-07-23T05:01:31;101817.16;;;20.89;58.64
67038;BME280;53940;53.204;6.590;2022-07-23T05:04:32;101806.44;;;20.89;58.62
67038;BME280;53940;53.204;6.590;2022-07-23T05:07:32;101808.13;;;20.90;58.56
67038;BME280;53940;53.204;6.590;2022-07-23T05:10:33;101812.66;;;20.89;58.31
67038;BME280;53940;53.204;6.590;2022-07-23T05:13:33;101818.84;;;20.90;58.59
67038;BME280;53940;53.204;6.590;2022-07-23T05:16:33;101825.06;;;20.90;58.54
67038;BME280;53940;53.204;6.590;2022-07-23T05:19:34;101820.59;;;20.91;58.56
67038;BME280;53940;53.204;6.590;2022-07-23T05:22:34;101822.41;;;20.90;58.67
67038;BME280;53940;53.204;6.590;2022-07-23T05:25:35;101824.97;;;20.92;58.53
67038;BME280;53940;53.204;6.590;2022-07-23T05:28:35;101820.34;;;20.94;58.42
67038;BME280;53940;53.204;6.590;2022-07-23T05:31:36;101817.66;;;20.94;58.49
67038;BME280;53940;53.204;6.590;2022-07-23T05:34:36;101822.03;;;20.95;58.64
67038;BME280;53940;53.204;6.590;2022-07-23T05:37:36;101823.72;;;20.96;58.38
67038;BME280;53940;53.204;6.590;2022-07-23T05:40:37;101832.53;;;20.98;58.61
67038;BME280;53940;53.204;6.590;2022-07-23T05:43:37;101830.59;;;21.00;58.53
67038;BME280;53940;53.204;6.590;2022-07-23T05:46:37;101832.28;;;21.01;58.61
67038;BME280;53940;53.204;6.590;2022-07-23T05:49:38;101841.91;;;21.04;58.36
67038;BME280;53940;53.204;6.590;2022-07-23T05:52:39;101837.41;;;21.04;58.55
67038;BME280;53940;53.204;6.590;2022-07-23T05:55:40;101837.16;;;21.07;58.60
67038;BME280;53940;53.204;6.590;2022-07-23T05:58:40;101838.88;;;21.08;58.61
67038;BME280;53940;53.204;6.590;2022-07-23T06:01:40;101842.31;;;21.10;58.46
67038;BME280;53940;53.204;6.590;2022-07-23T06:04:41;101840.34;;;21.12;58.43
67038;BME280;53940;53.204;6.590;2022-07-23T06:07:42;101843.75;;;21.14;58.47
67038;BME280;53940;53.204;6.590;2022-07-23T06:10:42;101842.81;;;21.16;58.19
67038;BME280;53940;53.204;6.590;2022-07-23T06:13:42;101838.19;;;21.18;58.26
67038;BME280;53940;53.204;6.590;2022-07-23T06:16:43;101839.88;;;21.19;58.15
67038;BME280;53940;53.204;6.590;2022-07-23T06:19:43;101843.28;;;21.21;58.23
67038;BME280;53940;53.204;6.590;2022-07-23T06:22:43;101842.44;;;21.20;58.22
67038;BME280;53940;53.204;6.590;2022-07-23T06:25:44;101841.38;;;21.23;58.43
67038;BME280;53940;53.204;6.590;2022-07-23T06:28:44;101841.38;;;21.23;58.15
67038;BME280;53940;53.204;6.590;2022-07-23T06:31:45;101836.84;;;21.23;58.20
67038;BME280;53940;53.204;6.590;2022-07-23T06:34:45;101850.13;;;21.25;58.33
67038;BME280;53940;53.204;6.590;2022-07-23T06:37:46;101853.69;;;21.25;58.06
67038;BME280;53940;53.204;6.590;2022-07-23T06:40:46;101850.00;;;21.26;57.96
67038;BME280;53940;53.204;6.590;2022-07-23T06:43:46;101848.19;;;21.27;57.94
67038;BME280;53940;53.204;6.590;2022-07-23T06:46:47;101852.59;;;21.28;58.02
67038;BME280;53940;53.204;6.590;2022-07-23T06:49:47;101851.59;;;21.29;58.30
67038;BME280;53940;53.204;6.590;2022-07-23T06:52:48;101854.19;;;21.31;57.98
67038;BME280;53940;53.204;6.590;2022-07-23T06:55:48;101862.94;;;21.33;58.19
67038;BME280;53940;53.204;6.590;2022-07-23T06:58:48;101870.00;;;21.34;57.97
67038;BME280;53940;53.204;6.590;2022-07-23T07:01:49;101872.59;;;21.35;58.08
67038;BME280;53940;53.204;6.590;2022-07-23T07:04:49;101881.34;;;21.37;58.16
67038;BME280;53940;53.204;6.590;2022-07-23T07:07:49;101877.69;;;21.38;58.21
67038;BME280;53940;53.204;6.590;2022-07-23T07:10:50;101874.91;;;21.40;58.33
67038;BME280;53940;53.204;6.590;2022-07-23T07:13:51;101891.59;;;21.44;58.21
67038;BME280;53940;53.204;6.590;2022-07-23T07:16:51;101880.66;;;21.47;58.03
67038;BME280;53940;53.204;6.590;2022-07-23T07:19:52;101876.72;;;21.51;57.98
67038;BME280;53940;53.204;6.590;2022-07-23T07:22:52;101886.03;;;21.58;58.22
67038;BME280;53940;53.204;6.590;2022-07-23T07:25:52;101880.28;;;21.63;57.87
67038;BME280;53940;53.204;6.590;2022-07-23T07:28:53;101884.31;;;21.68;58.00
67038;BME280;53940;53.204;6.590;2022-07-23T07:31:54;101876.78;;;21.74;57.78
67038;BME280;53940;53.204;6.590;2022-07-23T07:34:54;101887.03;;;21.80;58.06
67038;BME280;53940;53.204;6.590;2022-07-23T07:37:54;101884.25;;;21.81;57.95
67038;BME280;53940;53.204;6.590;2022-07-23T07:40:55;101886.53;;;21.86;57.82
67038;BME280;53940;53.204;6.590;2022-07-23T07:43:55;101894.38;;;21.89;57.66
67038;BME280;53940;53.204;6.590;2022-07-23T07:46:55;101892.41;;;21.91;57.55
67038;BME280;53940;53.204;6.590;2022-07-23T07:49:56;101888.50;;;21.96;57.66
67038;BME280;53940;53.204;6.590;2022-07-23T07:52:56;101896.06;;;22.02;57.72
67038;BME280;53940;53.204;6.590;2022-07-23T07:55:56;101909.13;;;22.06;57.32
67038;BME280;53940;53.204;6.590;2022-07-23T07:58:57;101912.53;;;22.08;57.25
67038;BME280;53940;53.204;6.590;2022-07-23T08:01:58;101905.22;;;22.11;57.50
67038;BME280;53940;53.204;6.590;2022-07-23T08:04:58;101909.47;;;22.13;57.36
67038;BME280;53940;53.204;6.590;2022-07-23T08:07:59;101914.59;;;22.16;57.38
67038;BME280;53940;53.204;6.590;2022-07-23T08:10:59;101914.34;;;22.19;57.07
67038;BME280;53940;53.204;6.590;2022-07-23T08:14:00;101905.06;;;22.24;56.92
67038;BME280;53940;53.204;6.590;2022-07-23T08:17:00;101911.31;;;22.24;57.13
67038;BME280;53940;53.204;6.590;2022-07-23T08:20:01;101910.19;;;22.27;57.30
67038;BME280;53940;53.204;6.590;2022-07-23T08:23:05;101908.13;;;22.30;57.20
67038;BME280;53940;53.204;6.590;2022-07-23T08:26:09;101907.72;;;22.35;56.94
67038;BME280;53940;53.204;6.590;2022-07-23T08:29:09;101906.38;;;22.41;56.86
67038;BME280;53940;53.204;6.590;2022-07-23T08:32:10;101905.25;;;22.43;56.69
67038;BME280;53940;53.204;6.590;2022-07-23T08:35:10;101912.34;;;22.44;56.90
67038;BME280;53940;53.204;6.590;2022-07-23T08:38:12;101908.69;;;22.45;56.83
67038;BME280;53940;53.204;6.590;2022-07-23T08:41:12;101911.13;;;22.48;56.63
67038;BME280;53940;53.204;6.590;2022-07-23T08:44:13;101915.50;;;22.49;56.79
67038;BME280;53940;53.204;6.590;2022-07-23T08:47:16;101914.53;;;22.51;56.57
67038;BME280;53940;53.204;6.590;2022-07-23T08:50:16;101919.81;;;22.52;56.51
67038;BME280;53940;53.204;6.590;2022-07-23T08:53:18;101924.34;;;22.52;56.54
67038;BME280;53940;53.204;6.590;2022-07-23T08:56:18;101920.66;;;22.53;56.47
67038;BME280;53940;53.204;6.590;2022-07-23T08:59:19;101926.03;;;22.53;56.60
67038;BME280;53940;53.204;6.590;2022-07-23T09:02:19;101918.72;;;22.55;56.62
67038;BME280;53940;53.204;6.590;2022-07-23T09:05:19;101917.59;;;22.57;56.43
67038;BME280;53940;53.204;6.590;2022-07-23T09:08:21;101920.16;;;22.59;56.27
67038;BME280;53940;53.204;6.590;2022-07-23T09:11:22;101928.72;;;22.64;56.38
67038;BME280;53940;53.204;6.590;2022-07-23T09:14:42;101925.63;;;22.69;56.47
67038;BME280;53940;53.204;6.590;2022-07-23T09:17:42;101926.34;;;22.71;56.36
67038;BME280;53940;53.204;6.590;2022-07-23T09:20:46;101926.22;;;22.72;56.15
67038;BME280;53940;53.204;6.590;2022-07-23T09:23:48;101923.44;;;22.74;56.07
67038;BME280;53940;53.204;6.590;2022-07-23T09:26:48;101930.50;;;22.75;56.26
67038;BME280;53940;53.204;6.590;2022-07-23T09:29:56;101932.19;;;22.76;56.27
67038;BME280;53940;53.204;6.590;2022-07-23T09:33:04;101934.06;;;22.75;56.19
67038;BME280;53940;53.204;6.590;2022-07-23T09:36:08;101921.44;;;22.76;56.13
67038;BME280;53940;53.204;6.590;2022-07-23T09:39:10;101931.09;;;22.79;56.12
67038;BME280;53940;53.204;6.590;2022-07-23T09:42:24;101932.78;;;22.80;56.01
67038;BME280;53940;53.204;6.590;2022-07-23T09:45:25;101930.09;;;22.80;56.08
67038;BME280;53940;53.204;6.590;2022-07-23T09:48:25;101937.06;;;22.82;56.20
67038;BME280;53940;53.204;6.590;2022-07-23T09:51:27;101933.38;;;22.83;56.16
67038;BME280;53940;53.204;6.590;2022-07-23T09:54:38;101935.97;;;22.85;55.96
67038;BME280;53940;53.204;6.590;2022-07-23T09:57:43;101927.03;;;22.84;55.85
67038;BME280;53940;53.204;6.590;2022-07-23T10:00:50;101940.34;;;22.86;55.91
67038;BME280;53940;53.204;6.590;2022-07-23T10:03:50;101937.66;;;22.86;55.85
67038;BME280;53940;53.204;6.590;2022-07-23T10:06:53;101940.34;;;22.86;55.83
67038;BME280;53940;53.204;6.590;2022-07-23T10:09:53;101943.03;;;22.86;55.82
67038;BME280;53940;53.204;6.590;2022-07-23T10:12:55;101943.03;;;22.86;55.83
67038;BME280;53940;53.204;6.590;2022-07-23T10:16:25;101938.53;;;22.86;55.77
67038;BME280;53940;53.204;6.590;2022-07-23T10:19:26;101944.63;;;22.88;55.76
67038;BME280;53940;53.204;6.590;2022-07-23T10:22:36;101956.47;;;22.86;55.68
67038;BME280;53940;53.204;6.590;2022-07-23T10:25:47;101957.22;;;22.88;55.59
67038;BME280;53940;53.204;6.590;2022-07-23T10:32:17;101960.16;;;22.85;55.75
67038;BME280;53940;53.204;6.590;2022-07-23T10:38:53;101965.13;;;22.89;55.56
67038;BME280;53940;53.204;6.590;2022-07-23T10:45:36;101968.69;;;22.90;55.75
67038;BME280;53940;53.204;6.590;2022-07-23T10:48:36;101955.25;;;22.90;55.67
67038;BME280;53940;53.204;6.590;2022-07-23T10:51:37;101965.72;;;22.93;55.63
67038;BME280;53940;53.204;6.590;2022-07-23T10:54:37;101972.84;;;22.94;55.80
67038;BME280;53940;53.204;6.590;2022-07-23T10:57:50;101977.22;;;22.95;55.68
67038;BME280;53940;53.204;6.590;2022-07-23T11:00:51;101976.25;;;22.96;55.81
67038;BME280;53940;53.204;6.590;2022-07-23T11:04:00;101982.47;;;22.97;56.11
67038;BME280;53940;53.204;6.590;2022-07-23T11:10:02;101972.56;;;22.97;56.14
67038;BME280;53940;53.204;6.590;2022-07-23T11:16:23;101974.16;;;23.00;56.12
67038;BME280;53940;53.204;6.590;2022-07-23T11:19:24;101967.91;;;22.99;56.03
67038;BME280;53940;53.204;6.590;2022-07-23T11:22:46;101966.94;;;23.00;56.37
67038;BME280;53940;53.204;6.590;2022-07-23T11:25:47;101966.22;;;22.98;55.89
67038;BME280;53940;53.204;6.590;2022-07-23T11:28:48;101969.75;;;22.99;55.74
67038;BME280;53940;53.204;6.590;2022-07-23T11:34:53;101969.88;;;22.97;55.62
67038;BME280;53940;53.204;6.590;2022-07-23T11:37:56;101973.56;;;22.96;55.82
67038;BME280;53940;53.204;6.590;2022-07-23T11:41:02;101976.25;;;22.96;55.60
67038;BME280;53940;53.204;6.590;2022-07-23T11:44:03;101978.22;;;22.94;55.70
67038;BME280;53940;53.204;6.590;2022-07-23T11:47:05;101973.69;;;22.95;55.87
67038;BME280;53940;53.204;6.590;2022-07-23T11:50:06;101974.53;;;22.95;55.80
67038;BME280;53940;53.204;6.590;2022-07-23T11:53:07;101974.78;;;22.92;56.00
67038;BME280;53940;53.204;6.590;2022-07-23T11:56:09;101978.22;;;22.94;55.87
67038;BME280;53940;53.204;6.590;2022-07-23T11:59:11;101972.84;;;22.94;55.80
67038;BME280;53940;53.204;6.590;2022-07-23T12:02:11;101976.47;;;22.93;55.79
67038;BME280;53940;53.204;6.590;2022-07-23T12:05:13;101971.09;;;22.93;55.80
67038;BME280;53940;53.204;6.590;2022-07-23T12:08:14;101983.59;;;22.94;55.81
67038;BME280;53940;53.204;6.590;2022-07-23T12:11:14;101974.66;;;22.94;56.01
67038;BME280;53940;53.204;6.590;2022-07-23T12:14:15;101971.09;;;22.93;55.70
67038;BME280;53940;53.204;6.590;2022-07-23T12:17:15;101979.16;;;22.93;55.73
67038;BME280;53940;53.204;6.590;2022-07-23T12:20:24;101976.47;;;22.93;55.79
67038;BME280;53940;53.204;6.590;2022-07-23T12:23:26;101979.06;;;22.95;55.80
67038;BME280;53940;53.204;6.590;2022-07-23T12:26:26;101971.84;;;22.95;55.79
67038;BME280;53940;53.204;6.590;2022-07-23T12:29:34;101974.53;;;22.95;55.77
67038;BME280;53940;53.204;6.590;2022-07-23T12:32:43;101971.84;;;22.95;55.79
67038;BME280;53940;53.204;6.590;2022-07-23T12:35:46;101975.25;;;22.97;55.88
67038;BME280;53940;53.204;6.590;2022-07-23T12:38:48;101976.25;;;22.96;55.83
67038;BME280;53940;53.204;6.590;2022-07-23T12:41:52;101971.69;;;22.97;55.75
67038;BME280;53940;53.204;6.590;2022-07-23T12:45:07;101974.41;;;22.97;55.76
67038;BME280;53940;53.204;6.590;2022-07-23T12:48:08;101967.19;;;22.97;55.88
67038;BME280;53940;53.204;6.590;2022-07-23T12:51:14;101967.19;;;22.97;55.83
67038;BME280;53940;53.204;6.590;2022-07-23T12:54:15;101965.50;;;22.96;55.89
67038;BME280;53940;53.204;6.590;2022-07-23T12:57:15;101962.81;;;22.96;55.76
67038;BME280;53940;53.204;6.590;2022-07-23T13:00:16;101965.50;;;22.96;55.60
67038;BME280;53940;53.204;6.590;2022-07-23T13:03:24;101970.88;;;22.96;55.67
67038;BME280;53940;53.204;6.590;2022-07-23T13:06:26;101970.00;;;22.96;55.62
67038;BME280;53940;53.204;6.590;2022-07-23T13:09:30;101971.84;;;22.95;55.64
67038;BME280;53940;53.204;6.590;2022-07-23T13:12:31;101963.78;;;22.95;55.83
67038;BME280;53940;53.204;6.590;2022-07-23T13:15:31;101969.16;;;22.95;55.82
67038;BME280;53940;53.204;6.590;2022-07-23T13:18:33;101965.50;;;22.96;55.79
67038;BME280;53940;53.204;6.590;2022-07-23T13:21:33;101967.19;;;22.97;55.75
67038;BME280;53940;53.204;6.590;2022-07-23T13:24:33;101970.88;;;22.96;55.74
67038;BME280;53940;53.204;6.590;2022-07-23T13:27:34;101964.63;;;22.96;55.71
67038;BME280;53940;53.204;6.590;2022-07-23T13:30:34;101959.25;;;22.96;55.74
67038;BME280;53940;53.204;6.590;2022-07-23T13:33:35;101954.75;;;22.96;55.89
67038;BME280;53940;53.204;6.590;2022-07-23T13:36:36;101954.75;;;22.96;55.86
67038;BME280;53940;53.204;6.590;2022-07-23T13:39:36;101954.75;;;22.96;55.77
67038;BME280;53940;53.204;6.590;2022-07-23T13:42:37;101948.50;;;22.96;55.79
67038;BME280;53940;53.204;6.590;2022-07-23T13:45:38;101961.09;;;22.95;55.52
67038;BME280;53940;53.204;6.590;2022-07-23T13:48:38;101960.13;;;22.96;55.76
67038;BME280;53940;53.204;6.590;2022-07-23T13:51:39;101954.75;;;22.96;55.74
67038;BME280;53940;53.204;6.590;2022-07-23T13:54:39;101956.44;;;22.97;55.79
67038;BME280;53940;53.204;6.590;2022-07-23T13:57:39;101957.44;;;22.96;55.67
67038;BME280;53940;53.204;6.590;2022-07-23T14:00:44;101948.38;;;22.97;55.72
67038;BME280;53940;53.204;6.590;2022-07-23T14:03:45;101952.06;;;22.96;55.60
67038;BME280;53940;53.204;6.590;2022-07-23T14:06:45;101951.06;;;22.97;55.88
67038;BME280;53940;53.204;6.590;2022-07-23T14:09:46;101956.44;;;22.97;55.63
67038;BME280;53940;53.204;6.590;2022-07-23T14:12:48;101952.06;;;22.96;55.47
67038;BME280;53940;53.204;6.590;2022-07-23T14:15:48;101959.25;;;22.96;55.55
67038;BME280;53940;53.204;6.590;2022-07-23T14:18:49;101960.13;;;22.96;55.63
67038;BME280;53940;53.204;6.590;2022-07-23T14:21:50;101954.75;;;22.96;55.62
67038;BME280;53940;53.204;6.590;2022-07-23T14:24:50;101954.63;;;22.98;55.74
67038;BME280;53940;53.204;6.590;2022-07-23T14:27:50;101948.38;;;22.97;55.63
67038;BME280;53940;53.204;6.590;2022-07-23T14:30:51;101951.06;;;22.97;55.79
67038;BME280;53940;53.204;6.590;2022-07-23T14:33:51;101944.69;;;22.98;55.77
67038;BME280;53940;53.204;6.590;2022-07-23T14:36:52;101950.94;;;22.99;55.97
67038;BME280;53940;53.204;6.590;2022-07-23T14:39:52;101949.09;;;22.99;55.80
67038;BME280;53940;53.204;6.590;2022-07-23T14:42:52;101954.47;;;22.99;55.94
67038;BME280;53940;53.204;6.590;2022-07-23T14:45:53;101960.72;;;23.00;55.41
67038;BME280;53940;53.204;6.590;2022-07-23T14:48:53;101961.56;;;23.00;55.83
67038;BME280;53940;53.204;6.590;2022-07-23T14:51:53;101959.84;;;22.99;55.67
67038;BME280;53940;53.204;6.590;2022-07-23T14:54:54;101962.53;;;22.99;55.80
67038;BME280;53940;53.204;6.590;2022-07-23T14:57:54;101966.09;;;23.00;55.86
67038;BME280;53940;53.204;6.590;2022-07-23T15:00:54;101961.56;;;23.00;55.83
67038;BME280;53940;53.204;6.590;2022-07-23T15:03:55;101966.94;;;23.00;55.88
67038;BME280;53940;53.204;6.590;2022-07-23T15:06:55;101963.28;;;23.01;55.92
67038;BME280;53940;53.204;6.590;2022-07-23T15:09:56;101963.28;;;23.01;56.09
67038;BME280;53940;53.204;6.590;2022-07-23T15:12:57;101964.25;;;23.00;55.82
67038;BME280;53940;53.204;6.590;2022-07-23T15:15:57;101954.22;;;23.02;55.91
67038;BME280;53940;53.204;6.590;2022-07-23T15:18:58;101955.22;;;23.01;56.01
67038;BME280;53940;53.204;6.590;2022-07-23T15:21:58;101960.59;;;23.01;56.00
67038;BME280;53940;53.204;6.590;2022-07-23T15:25:02;101962.28;;;23.02;56.01
67038;BME280;53940;53.204;6.590;2022-07-23T15:28:02;101956.06;;;23.02;56.03
67038;BME280;53940;53.204;6.590;2022-07-23T15:31:03;101947.16;;;23.01;55.92
67038;BME280;53940;53.204;6.590;2022-07-23T15:34:03;101949.84;;;23.01;56.14
67038;BME280;53940;53.204;6.590;2022-07-23T15:37:04;101955.94;;;23.04;56.15
67038;BME280;53940;53.204;6.590;2022-07-23T15:40:08;101966.69;;;23.04;55.82
67038;BME280;53940;53.204;6.590;2022-07-23T15:43:09;101961.19;;;23.05;55.99
67038;BME280;53940;53.204;6.590;2022-07-23T15:46:09;101957.63;;;23.05;55.80
67038;BME280;53940;53.204;6.590;2022-07-23T15:49:10;101959.22;;;23.07;55.74
67038;BME280;53940;53.204;6.590;2022-07-23T15:52:10;101957.38;;;23.08;55.82
67038;BME280;53940;53.204;6.590;2022-07-23T15:55:10;101957.38;;;23.08;55.87
67038;BME280;53940;53.204;6.590;2022-07-23T15:58:11;101951.03;;;23.09;55.93
67038;BME280;53940;53.204;6.590;2022-07-23T16:01:12;101942.97;;;23.09;56.03
67038;BME280;53940;53.204;6.590;2022-07-23T16:04:12;101936.59;;;23.10;55.94
67038;BME280;53940;53.204;6.590;2022-07-23T16:07:13;101933.03;;;23.09;55.79